createdAt,value
2023-03-04T00:08:34.905Z,5.50
2023-03-04T00:16:00.299Z,4.40
2023-03-04T00:18:27.508Z,5.30
2023-03-04T00:20:54.544Z,5.90
2023-03-04T00:23:21.593Z,5.20
2023-03-04T00:25:48.712Z,6.50
2023-03-04T00:28:15.827Z,5.20
2023-03-04T00:43:03.213Z,5.30
2023-03-04T00:45:30.277Z,5.30
2023-03-04T00:50:27.363Z,5.30
2023-03-04T00:52:54.344Z,5.30
2023-03-04T01:00:16.879Z,5.40
2023-03-04T01:05:11.935Z,5.40
2023-03-04T01:10:13.850Z,5.50
2023-03-04T01:12:43.166Z,5.50
2023-03-04T01:15:14.733Z,9.80
2023-03-04T01:17:42.388Z,6.50
2023-03-04T01:20:10.526Z,5.90
2023-03-04T01:25:06.470Z,4.10
2023-03-04T01:39:55.372Z,6.00
2023-03-04T01:42:24.744Z,5.60
2023-03-04T01:47:22.015Z,5.60
2023-03-04T01:49:54.112Z,5.20
2023-03-04T01:52:21.202Z,5.60
2023-03-04T01:54:48.868Z,5.50
2023-03-04T01:57:18.624Z,5.60
2023-03-04T02:04:42.715Z,5.50
2023-03-04T02:07:10.108Z,6.20
2023-03-04T02:12:05.610Z,5.60
2023-03-04T02:17:00.365Z,5.60
2023-03-04T02:19:49.742Z,5.60
2023-03-04T02:24:52.796Z,5.70
2023-03-04T02:29:50.329Z,5.60
2023-03-04T02:34:49.832Z,5.70
2023-03-04T02:37:18.995Z,5.70
2023-03-04T02:39:51.127Z,5.70
2023-03-04T02:44:48.331Z,5.70
2023-03-04T02:47:18.764Z,5.70
2023-03-04T02:52:20.903Z,5.70
2023-03-04T02:54:48.638Z,5.30
2023-03-04T02:57:16.953Z,5.70
2023-03-04T02:59:47.708Z,7.30
2023-03-04T03:04:49.882Z,5.70
2023-03-04T03:07:19.917Z,6.70
2023-03-04T03:09:51.260Z,7.40
2023-03-04T03:17:18.046Z,6.10
2023-03-04T03:19:45.289Z,2.00
2023-03-04T03:22:12.600Z,5.80
2023-03-04T03:24:39.791Z,5.60
2023-03-04T03:27:06.856Z,5.50
2023-03-04T03:29:34.388Z,6.30
2023-03-04T03:32:01.586Z,5.20
2023-03-04T03:34:28.859Z,5.90
2023-03-04T03:36:56.238Z,5.60
2023-03-04T03:44:18.297Z,5.60
2023-03-04T03:54:09.706Z,5.50
2023-03-04T03:56:36.679Z,5.50
2023-03-04T03:59:03.761Z,5.50
2023-03-04T04:01:30.877Z,6.80
2023-03-04T04:08:53.310Z,5.40
2023-03-04T04:21:11.176Z,5.20
2023-03-04T04:26:05.884Z,5.50
2023-03-04T04:31:00.728Z,6.00
2023-03-04T04:40:57.969Z,5.00
2023-03-04T04:43:25.756Z,5.00
2023-03-04T04:48:23.403Z,5.10
2023-03-04T04:50:55.362Z,5.00
2023-03-04T04:53:22.702Z,4.00
2023-03-04T05:15:31.836Z,5.60
2023-03-04T05:20:27.370Z,4.90
2023-03-04T05:22:54.458Z,5.00
2023-03-04T05:25:21.643Z,5.00
2023-03-04T05:32:43.833Z,4.40
2023-03-04T05:35:10.954Z,4.80
2023-03-04T05:40:06.161Z,5.60
2023-03-04T05:42:33.294Z,5.50
2023-03-04T05:47:27.800Z,4.80
2023-03-04T05:54:50.038Z,4.90
2023-03-04T06:04:39.628Z,4.80
2023-03-04T06:07:08.617Z,4.90
2023-03-04T06:09:37.848Z,5.60
2023-03-04T06:12:05.061Z,5.30
2023-03-04T06:24:22.150Z,4.80
2023-03-04T06:31:44.249Z,4.80
2023-03-04T06:39:07.243Z,5.30
2023-03-04T06:41:38.286Z,5.40
2023-03-04T06:44:06.259Z,4.60
2023-03-04T06:46:34.757Z,4.50
2023-03-04T06:49:02.007Z,4.50
2023-03-04T06:51:29.314Z,3.50
2023-03-04T06:53:56.620Z,5.10
2023-03-04T06:56:23.594Z,5.70
2023-03-04T07:01:24.364Z,4.50
2023-03-04T07:06:24.675Z,5.00
2023-03-04T07:08:52.904Z,4.70
2023-03-04T07:11:22.167Z,4.80
2023-03-04T07:13:50.635Z,5.00
2023-03-04T07:16:20.951Z,5.60
2023-03-04T07:21:17.513Z,2.80
2023-03-04T07:23:45.454Z,4.80
2023-03-04T07:28:42.754Z,4.90
2023-03-04T07:31:28.309Z,3.10
2023-03-04T07:34:04.478Z,4.90
2023-03-04T07:36:32.380Z,4.10
2023-03-04T07:38:59.490Z,4.90
2023-03-04T07:41:31.287Z,4.90
2023-03-04T07:43:59.315Z,5.80
2023-03-04T07:48:56.318Z,4.90
2023-03-04T07:51:25.672Z,4.90
2023-03-04T07:53:56.049Z,4.90
2023-03-04T07:56:24.267Z,4.90
2023-03-04T07:58:53.716Z,5.00
2023-03-04T08:01:25.032Z,5.00
2023-03-04T08:06:21.640Z,5.00
2023-03-04T08:08:49.623Z,5.00
2023-03-04T08:11:20.006Z,5.00
2023-03-04T08:13:50.512Z,4.90
2023-03-04T08:16:20.472Z,5.00
2023-03-04T08:18:50.395Z,5.20
2023-03-04T08:21:19.474Z,5.60
2023-03-04T08:26:21.348Z,5.00
2023-03-04T08:31:18.320Z,5.00
2023-03-04T08:33:46.405Z,5.20
2023-03-04T08:36:14.648Z,4.70
2023-03-04T08:41:10.136Z,3.20
2023-03-04T08:43:37.285Z,5.00
2023-03-04T08:51:00.604Z,5.00
2023-03-04T08:53:27.844Z,5.80
2023-03-04T08:55:54.880Z,5.60
2023-03-04T09:00:51.671Z,5.30
2023-03-04T09:03:20.455Z,6.50
2023-03-04T09:05:49.559Z,5.30
2023-03-04T09:08:18.297Z,5.40
2023-03-04T09:10:52.500Z,7.40
2023-03-04T09:15:50.165Z,6.40
2023-03-04T09:18:19.563Z,5.50
2023-03-04T09:25:43.154Z,5.60
2023-03-04T09:28:11.314Z,5.30
2023-03-04T09:30:38.345Z,5.40
2023-03-04T09:33:05.320Z,6.70
2023-03-04T09:38:00.424Z,6.10
2023-03-04T09:40:37.904Z,6.20
2023-03-04T09:43:07.922Z,6.50
2023-03-04T09:45:41.068Z,6.80
2023-03-04T09:48:11.263Z,4.80
2023-03-04T09:50:44.693Z,5.60
2023-03-04T09:53:25.449Z,5.40
2023-03-04T09:55:53.461Z,5.60
2023-03-04T09:58:38.743Z,5.60
2023-03-04T10:01:22.947Z,6.60
2023-03-04T10:04:02.794Z,6.10
2023-03-04T10:06:32.064Z,5.60
2023-03-04T10:09:06.256Z,5.60
2023-03-04T10:11:43.462Z,5.60
2023-03-04T10:14:35.315Z,5.50
2023-03-04T10:17:18.748Z,6.60
2023-03-04T10:20:12.142Z,5.50
2023-03-04T10:22:45.715Z,5.50
2023-03-04T10:25:29.862Z,5.50
2023-03-04T10:28:07.421Z,5.40
2023-03-04T10:30:56.915Z,5.40
2023-03-04T10:33:32.686Z,5.40
2023-03-04T10:36:14.399Z,5.40
2023-03-04T10:38:43.217Z,5.40
2023-03-04T10:41:21.226Z,6.10
2023-03-04T10:44:02.536Z,5.30
2023-03-04T10:46:31.438Z,6.40
2023-03-04T10:49:05.540Z,6.20
2023-03-04T10:51:46.514Z,5.50
2023-03-04T10:54:27.798Z,7.20
2023-03-04T10:59:51.601Z,5.70
2023-03-04T11:02:34.535Z,5.80
2023-03-04T11:05:23.012Z,5.80
2023-03-04T11:07:56.672Z,9.50
2023-03-04T11:10:36.699Z,4.40
2023-03-04T11:13:22.545Z,6.70
2023-03-04T11:15:58.431Z,5.20
2023-03-04T11:18:43.654Z,7.50
2023-03-04T11:21:42.197Z,4.10
2023-03-04T11:24:28.064Z,6.20
2023-03-04T11:27:01.164Z,6.60
2023-03-04T11:29:34.625Z,6.40
2023-03-04T11:32:21.845Z,5.70
2023-03-04T11:35:13.038Z,7.70
2023-03-04T11:38:01.786Z,5.80
2023-03-04T11:40:49.022Z,6.60
2023-03-04T11:43:28.011Z,6.60
2023-03-04T11:46:19.525Z,6.70
2023-03-04T11:49:01.948Z,6.70
2023-03-04T11:51:52.445Z,6.70
2023-03-04T11:55:00.755Z,6.80
2023-03-04T11:57:35.463Z,6.80
2023-03-04T12:00:12.496Z,7.10
2023-03-04T12:03:18.489Z,9.50
2023-03-04T12:06:06.946Z,8.00
2023-03-04T12:08:40.136Z,7.40
2023-03-04T12:11:29.607Z,6.60
2023-03-04T12:14:32.664Z,6.80
2023-03-04T12:19:50.411Z,6.60
2023-03-04T12:23:07.834Z,6.50
2023-03-04T12:25:34.866Z,6.20
2023-03-04T12:28:47.868Z,6.00
2023-03-04T12:31:33.306Z,8.70
2023-03-04T12:34:24.626Z,7.80
2023-03-04T12:37:23.381Z,7.30
2023-03-04T12:40:08.704Z,8.00
2023-03-04T12:42:54.512Z,8.10
2023-03-04T12:45:33.160Z,8.30
2023-03-04T12:48:21.485Z,8.60
2023-03-04T12:51:00.983Z,8.70
2023-03-04T12:53:39.244Z,9.00
2023-03-04T12:58:37.725Z,8.90
2023-03-04T13:01:23.314Z,8.90
2023-03-04T13:03:56.331Z,8.90
2023-03-04T13:08:59.705Z,9.50
2023-03-04T13:11:28.987Z,7.40
2023-03-04T13:14:25.572Z,7.70
2023-03-04T13:16:57.065Z,8.20
2023-03-04T13:19:47.832Z,7.90
2023-03-04T13:22:38.585Z,8.30
2023-03-04T13:25:30.172Z,8.20
2023-03-04T13:28:11.319Z,7.50
2023-03-04T13:30:38.562Z,7.90
2023-03-04T13:33:11.876Z,9.10
2023-03-04T13:35:49.379Z,7.80
2023-03-04T13:38:31.601Z,8.60
2023-03-04T13:41:22.972Z,8.60
2023-03-04T13:43:52.148Z,7.50
2023-03-04T13:48:50.044Z,7.50
2023-03-04T13:51:31.212Z,7.20
2023-03-04T13:54:02.927Z,7.20
2023-03-04T13:56:47.550Z,7.20
2023-03-04T13:59:42.389Z,7.40
2023-03-04T14:02:20.063Z,7.30
2023-03-04T14:04:54.192Z,7.50
2023-03-04T14:07:27.422Z,6.80
2023-03-04T14:10:12.795Z,6.70
2023-03-04T14:12:58.007Z,6.40
2023-03-04T14:15:31.622Z,6.40
2023-03-04T14:18:01.179Z,6.50
2023-03-04T14:20:41.597Z,6.50
2023-03-04T14:23:30.811Z,6.50
2023-03-04T14:26:18.417Z,6.60
2023-03-04T14:28:52.211Z,6.30
2023-03-04T14:31:22.961Z,6.10
2023-03-04T14:33:54.092Z,5.80
2023-03-04T14:36:23.936Z,8.10
2023-03-04T14:38:59.690Z,5.90
2023-03-04T14:41:34.298Z,5.90
2023-03-04T14:44:08.747Z,5.70
2023-03-04T14:46:56.823Z,5.70
2023-03-04T14:49:35.293Z,5.70
2023-03-04T14:54:41.155Z,5.60
2023-03-04T14:57:25.909Z,5.90
2023-03-04T14:59:56.138Z,6.50
2023-03-04T15:02:31.198Z,5.50
2023-03-04T15:05:16.474Z,5.50
2023-03-04T15:08:19.722Z,5.80
2023-03-04T15:10:56.865Z,5.40
2023-03-04T15:13:50.331Z,3.60
2023-03-04T15:16:23.547Z,5.70
2023-03-04T15:19:06.353Z,5.50
2023-03-04T15:21:40.489Z,6.80
2023-03-04T15:24:10.267Z,4.80
2023-03-04T15:26:42.709Z,4.50
2023-03-04T15:29:14.766Z,5.50
2023-03-04T15:31:43.871Z,5.80
2023-03-04T15:34:16.332Z,5.40
2023-03-04T15:36:46.756Z,5.30
2023-03-04T15:39:15.865Z,5.40
2023-03-04T15:49:13.245Z,5.40
2023-03-04T15:54:13.805Z,5.40
2023-03-04T15:59:14.624Z,5.30
2023-03-04T16:04:19.208Z,6.60
2023-03-04T16:06:48.600Z,5.40
2023-03-04T16:09:19.782Z,5.40
2023-03-04T16:24:17.797Z,5.30
2023-03-04T16:31:44.082Z,4.70
2023-03-04T16:39:12.969Z,5.60
2023-03-04T16:41:40.127Z,6.30
2023-03-04T16:46:39.792Z,5.10
2023-03-04T16:51:46.632Z,5.10
2023-03-04T16:54:22.692Z,5.00
2023-03-04T16:59:18.034Z,5.10
2023-03-04T17:01:49.690Z,5.00
2023-03-04T17:14:16.212Z,7.00
2023-03-04T17:24:11.187Z,5.00
2023-03-04T17:26:39.857Z,4.90
2023-03-04T17:29:06.944Z,5.20
2023-03-04T17:31:35.644Z,5.00
2023-03-04T17:36:30.456Z,5.40
2023-03-04T17:41:26.807Z,5.00
2023-03-04T17:43:54.655Z,4.80
2023-03-04T17:46:24.514Z,4.90
2023-03-04T17:48:57.474Z,4.80
2023-03-04T17:51:34.496Z,4.70
2023-03-04T17:54:02.321Z,4.80
2023-03-04T17:56:32.634Z,3.90
2023-03-04T17:59:01.201Z,4.80
2023-03-04T18:01:28.795Z,4.70
2023-03-04T18:03:57.596Z,4.60
2023-03-04T18:06:25.326Z,4.60
2023-03-04T18:08:53.585Z,4.70
2023-03-04T18:11:22.642Z,5.30
2023-03-04T18:13:49.836Z,4.70
2023-03-04T18:16:23.462Z,5.90
2023-03-04T18:18:51.513Z,4.70
2023-03-04T18:21:19.687Z,4.70
2023-03-04T18:23:47.163Z,3.50
2023-03-04T18:26:14.178Z,4.60
2023-03-04T18:28:41.442Z,4.90
2023-03-04T18:31:10.440Z,4.30
2023-03-04T18:36:09.515Z,4.70
2023-03-04T18:41:09.947Z,4.70
2023-03-04T18:46:08.317Z,4.50
2023-03-04T18:48:42.010Z,4.40
2023-03-04T18:51:12.925Z,3.80
2023-03-04T18:56:13.500Z,4.40
2023-03-04T18:58:43.694Z,4.40
2023-03-04T19:01:11.824Z,4.30
2023-03-04T19:06:10.371Z,4.30
2023-03-04T19:11:12.124Z,4.30
2023-03-04T19:28:32.117Z,3.50
2023-03-04T19:31:02.818Z,4.70
2023-03-04T19:33:36.576Z,3.90
2023-03-04T19:36:07.103Z,3.80
2023-03-04T19:41:16.441Z,3.80
2023-03-04T19:48:39.970Z,4.10
2023-03-04T19:51:16.105Z,3.70
2023-03-04T19:53:43.673Z,3.00
2023-03-04T19:56:15.317Z,3.80
2023-03-04T20:01:28.386Z,4.20
2023-03-04T20:04:01.078Z,3.80
2023-03-04T20:08:59.480Z,3.50
2023-03-04T20:11:27.912Z,3.90
2023-03-04T20:13:58.340Z,4.10
2023-03-04T20:16:28.419Z,3.40
2023-03-04T20:18:58.028Z,3.40
2023-03-04T20:21:26.746Z,2.50
2023-03-04T20:23:54.282Z,3.40
2023-03-04T20:28:50.725Z,3.40
2023-03-04T20:31:27.436Z,4.40
2023-03-04T20:33:55.825Z,3.30
2023-03-04T20:36:27.661Z,3.30
2023-03-04T20:46:33.398Z,2.90
2023-03-04T20:49:03.992Z,2.70
2023-03-04T20:51:32.367Z,3.00
2023-03-04T20:59:00.204Z,2.70
2023-03-04T21:13:54.193Z,2.10
2023-03-04T21:21:22.353Z,2.00
2023-03-04T21:23:51.458Z,1.90
2023-03-04T21:26:21.863Z,2.00
2023-03-04T21:31:25.786Z,1.90
2023-03-04T21:33:54.875Z,1.80
2023-03-04T21:38:54.006Z,3.00
2023-03-04T21:41:23.477Z,1.80
2023-03-04T21:43:51.752Z,1.80
2023-03-04T21:51:17.108Z,2.20
2023-03-04T21:56:15.756Z,2.30
2023-03-04T22:01:16.239Z,2.40
2023-03-04T22:03:43.707Z,2.50
2023-03-04T22:06:15.297Z,2.40
2023-03-04T22:11:13.715Z,2.10
2023-03-04T22:16:09.718Z,2.50
2023-03-04T22:18:40.981Z,1.90
2023-03-04T22:21:11.787Z,2.50
2023-03-04T22:26:17.023Z,3.50
2023-03-04T22:28:44.705Z,2.60
2023-03-04T22:31:30.364Z,2.10
2023-03-04T22:34:02.344Z,2.60
2023-03-04T22:36:32.301Z,2.70
2023-03-04T22:39:00.852Z,2.70
2023-03-04T22:41:28.088Z,2.70
2023-03-04T22:43:56.889Z,2.70
2023-03-04T22:46:26.707Z,2.80
2023-03-04T22:48:56.710Z,2.80
2023-03-04T22:56:20.442Z,3.70
2023-03-04T22:58:48.070Z,2.80
2023-03-04T23:01:17.543Z,2.90
2023-03-04T23:03:47.488Z,2.90
2023-03-04T23:06:25.323Z,2.90
2023-03-04T23:11:26.687Z,2.80
2023-03-04T23:13:55.064Z,2.50
2023-03-04T23:16:29.956Z,2.90
2023-03-04T23:24:04.112Z,4.50
2023-03-04T23:26:35.150Z,2.90
2023-03-04T23:29:09.875Z,2.90
2023-03-04T23:34:13.125Z,2.80
2023-03-04T23:39:12.614Z,2.70
2023-03-04T23:46:39.311Z,2.50
2023-03-04T23:49:07.557Z,2.50
2023-03-04T23:51:35.014Z,2.50
2023-03-04T23:56:33.701Z,2.30
